createdAt,value
2018-05-17T13:26:53.006Z,85.30
2018-05-17T13:27:55.511Z,85.70
2018-05-17T13:28:58.019Z,84.70
2018-05-17T13:30:00.546Z,84.50
2018-05-17T13:31:03.045Z,86.60
2018-05-17T13:32:06.341Z,87.50
2018-05-17T13:33:09.603Z,88.40
2018-05-17T13:34:12.129Z,88.30
2018-05-17T13:35:14.645Z,89.80
2018-05-17T13:36:17.149Z,90.20
2018-05-17T13:37:20.556Z,89.50
2018-05-17T13:38:22.966Z,89.40
2018-05-17T13:39:25.457Z,90.80
2018-05-17T13:40:28.759Z,90.70
2018-05-17T13:41:32.025Z,90.70
2018-05-17T13:42:34.563Z,90.40
2018-05-17T13:43:37.059Z,90.30
2018-05-17T13:44:39.565Z,90.10
2018-05-17T13:45:42.846Z,87.00
2018-05-17T13:46:46.121Z,86.90
2018-05-17T13:47:48.648Z,86.90
2018-05-17T13:48:51.167Z,87.10
2018-05-17T13:49:53.664Z,86.60
2018-05-17T13:50:56.179Z,87.40
2018-05-17T13:51:58.701Z,86.60
2018-05-17T13:53:01.985Z,88.80
2018-05-17T13:54:05.253Z,89.60
2018-05-17T13:55:07.793Z,89.50
2018-05-17T13:56:10.542Z,87.30
2018-05-17T13:57:13.069Z,87.20
2018-05-17T13:58:15.586Z,87.60
2018-05-17T13:59:18.094Z,87.20
2018-05-17T14:00:20.624Z,87.10
2018-05-17T14:01:23.130Z,85.90
2018-05-17T14:02:25.738Z,86.30
2018-05-17T14:03:28.945Z,87.40
2018-05-17T14:04:31.487Z,87.30
2018-05-17T14:05:38.393Z,86.30
2018-05-17T14:06:40.934Z,84.80
2018-05-17T14:07:43.462Z,83.60
2018-05-17T14:08:45.979Z,84.40
2018-05-17T14:09:50.086Z,85.40
2018-05-17T14:10:52.568Z,85.40
2018-05-17T14:11:55.877Z,84.90
2018-05-17T14:12:58.376Z,84.90
2018-05-17T14:14:00.884Z,85.80
2018-05-17T14:15:03.394Z,86.80
2018-05-17T14:16:05.939Z,85.80
2018-05-17T14:17:09.200Z,85.10
2018-05-17T14:18:11.748Z,85.00
2018-05-17T14:19:14.254Z,83.10
2018-05-17T14:20:16.770Z,84.60
2018-05-17T14:21:19.304Z,85.00
2018-05-17T14:22:22.575Z,85.10
2018-05-17T14:23:25.091Z,84.90
2018-05-17T14:24:27.591Z,86.00
2018-05-17T14:25:30.113Z,84.50
2018-05-17T14:26:33.412Z,84.70
2018-05-17T14:27:35.909Z,84.70
2018-05-17T14:28:38.477Z,84.40
2018-05-17T14:29:41.028Z,83.90
2018-05-17T14:30:43.570Z,84.50
2018-05-17T14:31:46.177Z,86.00
2018-05-17T14:32:48.639Z,85.20
2018-05-17T14:33:51.166Z,87.70
2018-05-17T14:34:53.668Z,86.00
2018-05-17T14:35:56.935Z,85.10
2018-05-17T14:36:59.463Z,85.00
2018-05-17T14:38:01.976Z,85.10
2018-05-17T14:39:05.386Z,85.60
2018-05-17T14:40:08.677Z,83.90
2018-05-17T14:41:11.955Z,84.10
2018-05-17T14:42:15.239Z,84.10
2018-05-17T14:43:17.803Z,84.10
2018-05-17T14:44:20.329Z,85.90
2018-05-17T14:45:25.770Z,87.10
2018-05-17T14:46:28.277Z,86.70
2018-05-17T14:47:30.784Z,86.60
2018-05-17T14:48:34.074Z,88.10
2018-05-17T14:49:36.599Z,88.10
2018-05-17T14:50:39.129Z,87.40
2018-05-17T14:51:41.673Z,87.90
2018-05-17T14:52:44.968Z,87.30
2018-05-17T14:53:48.271Z,87.60
2018-05-17T14:54:50.810Z,87.60
2018-05-17T14:55:54.198Z,85.70
2018-05-17T14:56:56.676Z,85.70
2018-05-17T14:57:59.978Z,86.10
2018-05-17T14:59:03.275Z,87.10
2018-05-17T15:00:05.801Z,87.10
2018-05-17T15:01:08.448Z,87.90
2018-05-17T15:02:10.981Z,89.30
2018-05-17T15:03:14.319Z,88.50
2018-05-17T15:04:16.872Z,88.50
2018-05-17T15:05:19.383Z,89.40
2018-05-17T15:06:21.901Z,89.10
2018-05-17T15:07:24.422Z,88.30
2018-05-17T15:08:26.985Z,87.80
2018-05-17T15:09:29.485Z,88.00
2018-05-17T15:10:32.032Z,88.80
2018-05-17T15:11:34.554Z,87.90
2018-05-17T15:12:37.092Z,87.50
2018-05-17T15:13:40.393Z,88.50
2018-05-17T15:14:43.652Z,87.30
2018-05-17T15:15:46.159Z,87.30
2018-05-17T15:16:49.418Z,86.40
2018-05-17T15:17:51.928Z,86.40
2018-05-17T15:18:54.503Z,86.50
2018-05-17T15:19:57.007Z,87.20
2018-05-17T15:20:59.528Z,86.70
2018-05-17T15:22:02.817Z,84.90
2018-05-17T15:23:06.105Z,85.20
2018-05-17T15:24:09.437Z,84.10
2018-05-17T15:25:12.004Z,84.10
2018-05-17T15:26:14.520Z,84.90
2018-05-17T15:27:17.903Z,87.70
2018-05-17T15:28:20.362Z,87.50
2018-05-17T15:29:22.893Z,86.70
2018-05-17T15:30:25.397Z,87.50
2018-05-17T15:31:27.911Z,86.80
2018-05-17T15:32:31.188Z,87.80
2018-05-17T15:33:34.448Z,88.70
2018-05-17T15:34:36.979Z,88.60
2018-05-17T15:35:39.494Z,88.40
2018-05-17T15:36:42.003Z,87.80
2018-05-17T15:37:44.526Z,87.40
2018-05-17T15:38:47.047Z,87.20
2018-05-17T15:39:50.382Z,87.70
2018-05-17T15:40:52.902Z,87.60
2018-05-17T15:41:55.435Z,87.30
2018-05-17T15:42:57.957Z,88.10
2018-05-17T15:44:00.451Z,88.60
2018-05-17T15:45:02.982Z,88.70
2018-05-17T15:46:06.262Z,88.20
2018-05-17T15:47:08.773Z,88.10
2018-05-17T15:48:11.450Z,88.80
2018-05-17T15:49:13.941Z,88.70
2018-05-17T15:50:16.477Z,90.00
2018-05-17T15:51:18.991Z,90.30
2018-05-17T15:52:21.490Z,90.50
2018-05-17T15:53:24.031Z,90.70
2018-05-17T15:54:26.538Z,90.40
2018-05-17T15:55:29.833Z,90.70
2018-05-17T15:56:32.339Z,90.70
2018-05-17T15:57:34.915Z,91.30
2018-05-17T15:58:37.423Z,91.40
2018-05-17T15:59:39.918Z,91.20
2018-05-17T16:00:42.439Z,91.30
2018-05-17T16:01:45.024Z,91.40
2018-05-17T16:02:47.532Z,91.80
2018-05-17T16:03:50.030Z,91.60
2018-05-17T16:04:52.558Z,91.80
2018-05-17T16:05:55.858Z,91.70
2018-05-17T16:06:58.369Z,91.70
2018-05-17T16:08:00.883Z,91.60
2018-05-17T16:09:03.485Z,91.60
2018-05-17T16:10:06.037Z,91.60
2018-05-17T16:11:08.600Z,91.60
2018-05-17T16:12:11.943Z,91.90
2018-05-17T16:13:14.447Z,91.90
2018-05-17T16:14:16.955Z,92.10
2018-05-17T16:15:19.542Z,92.00
2018-05-17T16:16:22.795Z,92.40
2018-05-17T16:17:26.249Z,92.30
2018-05-17T16:18:28.773Z,92.30
2018-05-17T16:19:31.306Z,92.30
2018-05-17T16:20:33.821Z,92.20
2018-05-17T16:21:36.346Z,92.70
2018-05-17T16:22:38.855Z,92.90
2018-05-17T16:23:41.363Z,93.20
2018-05-17T16:24:43.867Z,93.50
2018-05-17T16:25:47.220Z,93.80
2018-05-17T16:26:49.761Z,93.80
2018-05-17T16:27:52.281Z,94.20
2018-05-17T16:28:54.780Z,94.40
2018-05-17T16:29:58.156Z,94.30
2018-05-17T16:31:00.666Z,94.30
2018-05-17T16:32:03.233Z,94.60
2018-05-17T16:33:05.764Z,95.00
2018-05-17T16:34:08.269Z,95.40
2018-05-17T16:35:10.867Z,95.60
2018-05-17T16:36:13.405Z,95.40
2018-05-17T16:37:16.665Z,95.60
2018-05-17T16:38:19.183Z,95.60
2018-05-17T16:39:21.757Z,95.90
2018-05-17T16:40:24.280Z,96.20
2018-05-17T16:41:26.807Z,96.60
2018-05-17T16:42:29.354Z,96.90
2018-05-17T16:43:31.868Z,97.00
2018-05-17T16:44:34.371Z,97.10
2018-05-17T16:45:37.656Z,97.30
2018-05-17T16:46:40.176Z,96.90
2018-05-17T16:47:42.696Z,97.20
2018-05-17T16:48:45.195Z,97.60
2018-05-17T16:49:47.707Z,97.80
2018-05-17T16:50:50.250Z,98.00
2018-05-17T16:51:52.759Z,98.30
2018-05-17T16:52:55.354Z,98.50
2018-05-17T16:53:57.855Z,98.80
2018-05-17T16:55:01.139Z,99.10
2018-05-17T16:56:03.709Z,99.10
2018-05-17T16:57:06.221Z,99.20
2018-05-17T16:58:08.720Z,99.30
2018-05-17T16:59:11.309Z,99.20
2018-05-17T17:00:14.588Z,99.60
2018-05-17T17:01:17.882Z,99.90
2018-05-17T17:02:21.167Z,99.90
2018-05-17T17:03:24.550Z,99.90
2018-05-17T17:04:27.096Z,99.90
2018-05-17T17:05:29.637Z,99.90
2018-05-17T17:06:32.214Z,99.90
2018-05-17T17:07:34.707Z,99.90
2018-05-17T17:08:37.198Z,99.90
2018-05-17T17:09:40.483Z,99.90
2018-05-17T17:10:43.061Z,99.90
2018-05-17T17:11:46.334Z,99.90
2018-05-17T17:12:48.850Z,99.90
2018-05-17T17:13:51.365Z,99.90
2018-05-17T17:14:53.913Z,99.90
2018-05-17T17:15:56.422Z,99.90
2018-05-17T17:16:58.917Z,99.90
2018-05-17T17:18:02.226Z,99.90
2018-05-17T17:19:04.748Z,99.90
2018-05-17T17:20:07.293Z,99.90
2018-05-17T17:21:09.839Z,99.90
2018-05-17T17:22:12.366Z,99.90
2018-05-17T17:23:14.866Z,99.90
2018-05-17T17:24:18.134Z,99.90
2018-05-17T17:25:20.688Z,99.90
2018-05-17T17:26:23.191Z,99.90
2018-05-17T17:27:26.472Z,99.90
2018-05-17T17:28:29.760Z,99.90
2018-05-17T17:29:33.054Z,99.90
2018-05-17T17:30:36.350Z,99.90
2018-05-17T17:31:39.628Z,99.90
2018-05-17T17:32:42.929Z,99.90
2018-05-17T17:33:45.488Z,99.90
2018-05-17T17:34:48.789Z,99.90
2018-05-17T17:35:52.091Z,99.90
2018-05-17T17:36:54.620Z,99.90
2018-05-17T17:37:57.138Z,99.90
2018-05-17T17:38:59.657Z,99.90
2018-05-17T17:40:02.187Z,99.90
2018-05-17T17:41:04.759Z,99.90
2018-05-17T17:42:07.293Z,99.90
2018-05-17T17:43:10.584Z,99.90
2018-05-17T17:44:13.895Z,99.90
2018-05-17T17:45:17.201Z,99.90
2018-05-17T17:46:19.792Z,99.90
2018-05-17T17:47:22.316Z,99.90
2018-05-17T17:48:25.005Z,99.90
2018-05-17T17:49:27.561Z,99.90
2018-05-17T17:50:30.140Z,99.90
2018-05-17T17:51:32.679Z,99.90
2018-05-17T17:52:35.240Z,99.90
2018-05-17T17:53:37.791Z,99.90
2018-05-17T17:54:40.332Z,99.90
2018-05-17T17:55:42.861Z,99.90
2018-05-17T17:56:45.395Z,99.90
2018-05-17T17:57:49.433Z,99.90
2018-05-17T17:58:51.982Z,99.90
2018-05-17T17:59:55.285Z,99.90
2018-05-17T18:00:58.561Z,99.90
2018-05-17T18:02:01.857Z,99.90
2018-05-17T18:03:05.152Z,99.90
2018-05-17T18:04:08.439Z,99.90
2018-05-17T18:05:11.846Z,99.90
2018-05-17T18:06:14.299Z,99.90
2018-05-17T18:07:17.596Z,99.90
2018-05-17T18:08:21.183Z,99.90
2018-05-17T18:09:23.805Z,99.90
2018-05-17T18:11:36.039Z,99.90
2018-05-17T18:12:38.661Z,99.90
2018-05-17T18:13:41.188Z,99.90
2018-05-17T18:14:43.712Z,99.90
2018-05-17T18:15:46.268Z,99.90
2018-05-17T18:16:48.805Z,99.90
2018-05-17T18:17:51.344Z,99.90
2018-05-17T18:18:53.870Z,99.90
2018-05-17T18:19:57.132Z,99.90
2018-05-17T18:20:59.646Z,99.90
2018-05-17T18:22:02.161Z,99.90
2018-05-17T18:23:04.674Z,99.90
2018-05-17T18:24:08.023Z,99.90
2018-05-17T18:25:10.757Z,99.90
2018-05-17T18:26:13.423Z,99.90
2018-05-17T18:27:15.980Z,99.90
2018-05-17T18:28:19.327Z,99.90
2018-05-17T18:29:21.880Z,99.90
2018-05-17T18:30:24.399Z,99.90
2018-05-17T18:31:27.801Z,99.90
2018-05-17T18:32:30.437Z,99.90
2018-05-17T18:33:33.697Z,99.90
2018-05-17T18:34:36.214Z,99.90
2018-05-17T18:35:40.247Z,99.90
2018-05-17T18:36:42.836Z,99.90
2018-05-17T18:37:46.071Z,99.90
2018-05-17T18:38:48.612Z,99.90
2018-05-17T18:39:51.141Z,99.90
2018-05-17T18:40:54.472Z,99.90
2018-05-17T18:41:57.034Z,99.90
2018-05-17T18:42:59.587Z,99.90
2018-05-17T18:44:02.149Z,99.90
2018-05-17T18:45:05.448Z,99.90
2018-05-17T18:46:07.992Z,99.90
2018-05-17T18:47:10.647Z,99.90
2018-05-17T18:48:13.189Z,99.90
2018-05-17T18:49:15.721Z,99.90
2018-05-17T18:50:18.993Z,99.90
2018-05-17T18:51:21.553Z,99.90
2018-05-17T18:52:24.081Z,99.90
2018-05-17T18:53:26.611Z,99.90
2018-05-17T18:54:29.259Z,99.90
2018-05-17T18:55:32.482Z,99.90
2018-05-17T18:56:35.805Z,99.90
2018-05-17T18:57:38.345Z,99.90
2018-05-17T18:58:41.646Z,99.90
2018-05-17T18:59:44.203Z,99.90
2018-05-17T19:00:47.549Z,99.90
2018-05-17T19:01:50.826Z,99.90
2018-05-17T19:02:54.109Z,99.90
2018-05-17T19:03:56.649Z,99.90
2018-05-17T19:04:59.989Z,99.90
2018-05-17T19:06:02.527Z,99.90
2018-05-17T19:07:05.080Z,99.90
2018-05-17T19:08:08.492Z,99.90
2018-05-17T19:09:11.063Z,99.90
2018-05-17T19:10:13.990Z,99.90
2018-05-17T19:11:16.621Z,99.90
2018-05-17T19:12:20.091Z,99.90
2018-05-17T19:13:22.628Z,99.90
2018-05-17T19:14:25.195Z,99.90
2018-05-17T19:15:27.762Z,99.90
2018-05-17T19:16:30.304Z,99.90
2018-05-17T19:17:32.842Z,99.90
2018-05-17T19:18:35.401Z,99.90
2018-05-17T19:19:37.936Z,99.90
2018-05-17T19:20:40.469Z,99.90
2018-05-17T19:21:43.798Z,99.90
2018-05-17T19:22:46.428Z,99.90
2018-05-17T19:23:49.748Z,99.90
2018-05-17T19:24:52.264Z,99.90
2018-05-17T19:25:54.825Z,99.90
2018-05-17T19:26:57.419Z,99.90
2018-05-17T19:27:59.954Z,99.90
2018-05-17T19:29:02.589Z,99.90
2018-05-17T19:30:05.976Z,99.90
2018-05-17T19:31:09.405Z,99.90
2018-05-17T19:32:12.749Z,99.90
2018-05-17T19:33:16.104Z,99.90
2018-05-17T19:34:18.657Z,99.90
2018-05-17T19:35:21.235Z,99.90
2018-05-17T19:36:23.757Z,99.90
2018-05-17T19:37:27.134Z,99.90
2018-05-17T19:38:29.619Z,99.90
2018-05-17T19:39:32.921Z,99.90
2018-05-17T19:40:35.442Z,99.90
2018-05-17T19:41:38.000Z,99.90
2018-05-17T19:42:40.576Z,99.90
2018-05-17T19:43:43.104Z,99.90
2018-05-17T19:44:46.393Z,99.90
2018-05-17T19:45:49.702Z,99.90
2018-05-17T19:46:52.251Z,99.90
2018-05-17T19:47:55.532Z,99.90
2018-05-17T19:48:58.830Z,99.90
2018-05-17T19:50:02.169Z,99.90
2018-05-17T19:51:04.688Z,99.90
2018-05-17T19:52:08.013Z,99.90
2018-05-17T19:53:10.594Z,99.90
2018-05-17T19:54:14.651Z,99.90
2018-05-17T19:55:17.974Z,99.90
2018-05-17T19:56:20.498Z,99.90
2018-05-17T19:57:23.021Z,99.90
2018-05-17T19:58:25.596Z,99.90
2018-05-17T19:59:28.254Z,99.90
2018-05-17T20:00:30.776Z,99.90
2018-05-17T20:01:33.252Z,99.90
2018-05-17T20:02:35.766Z,99.90
2018-05-17T20:03:38.323Z,99.90
2018-05-17T20:04:40.856Z,99.90
2018-05-17T20:05:43.369Z,99.90
2018-05-17T20:06:45.992Z,99.90
2018-05-17T20:07:48.605Z,99.90
2018-05-17T20:08:51.947Z,99.90
2018-05-17T20:09:54.489Z,99.90
2018-05-17T20:10:57.018Z,99.90
2018-05-17T20:11:59.587Z,99.90
2018-05-17T20:13:02.866Z,99.90
2018-05-17T20:14:05.484Z,99.90
2018-05-17T20:15:08.034Z,99.90
2018-05-17T20:16:11.426Z,99.90
2018-05-17T20:17:14.733Z,99.90
2018-05-17T20:18:17.273Z,99.90
2018-05-17T20:19:19.853Z,99.90
2018-05-17T20:20:22.533Z,99.90
2018-05-17T20:21:25.050Z,99.90
2018-05-17T20:22:27.577Z,99.90
2018-05-17T20:23:30.874Z,99.90
2018-05-17T20:24:33.776Z,99.90
2018-05-17T20:25:36.331Z,99.90
2018-05-17T20:26:38.889Z,99.90
2018-05-17T20:27:41.430Z,99.90
2018-05-17T20:28:43.984Z,99.90
2018-05-17T20:29:46.580Z,99.90
2018-05-17T20:30:49.115Z,99.90
2018-05-17T20:31:51.627Z,99.90
2018-05-17T20:32:54.933Z,99.90
2018-05-17T20:33:58.220Z,99.90
2018-05-17T20:35:01.504Z,99.90
2018-05-17T20:36:04.781Z,99.90
2018-05-17T20:37:08.080Z,99.90
2018-05-17T20:38:11.469Z,99.90
2018-05-17T20:39:14.772Z,99.90
2018-05-17T20:40:17.299Z,99.90
2018-05-17T20:41:19.842Z,99.90
2018-05-17T20:42:22.407Z,99.90
2018-05-17T20:43:24.945Z,99.90
2018-05-17T20:44:28.250Z,99.90
2018-05-17T20:45:30.756Z,99.90
2018-05-17T20:46:33.259Z,99.90
2018-05-17T20:47:35.766Z,99.90
2018-05-17T20:48:38.287Z,99.90
2018-05-17T20:49:40.856Z,99.90
2018-05-17T20:50:43.344Z,99.90
2018-05-17T20:51:45.929Z,99.90
2018-05-17T20:52:49.219Z,99.90
2018-05-17T20:53:52.554Z,99.90
2018-05-17T20:54:55.107Z,99.90
2018-05-17T20:55:57.638Z,99.90
2018-05-17T20:57:00.147Z,99.90
2018-05-17T20:58:02.666Z,99.90
2018-05-17T20:59:05.192Z,99.90
2018-05-17T21:00:07.706Z,99.90
2018-05-17T21:01:10.240Z,99.90
2018-05-17T21:02:12.774Z,99.90
2018-05-17T21:03:16.042Z,99.90
2018-05-17T21:04:18.567Z,99.90
2018-05-17T21:05:22.032Z,99.90
2018-05-17T21:06:25.309Z,99.90
2018-05-17T21:07:27.806Z,99.90
2018-05-17T21:08:30.325Z,99.90
2018-05-17T21:09:32.885Z,99.90
2018-05-17T21:10:35.596Z,99.90
2018-05-17T21:11:38.913Z,99.90
2018-05-17T21:12:41.509Z,99.90
2018-05-17T21:13:44.013Z,99.90
2018-05-17T21:14:46.523Z,99.90
2018-05-17T21:15:50.029Z,99.90
2018-05-17T21:16:52.544Z,99.90
2018-05-17T21:17:55.080Z,99.90
2018-05-17T21:18:57.583Z,99.90
2018-05-17T21:20:00.095Z,99.90
2018-05-17T21:21:03.487Z,99.90
2018-05-17T21:22:06.741Z,99.90
2018-05-17T21:23:09.272Z,99.90
2018-05-17T21:24:11.865Z,99.90
2018-05-17T21:25:14.389Z,99.90
2018-05-17T21:26:17.709Z,99.90
2018-05-17T21:27:20.242Z,99.90
2018-05-17T21:28:22.755Z,99.90
2018-05-17T21:29:25.257Z,99.90
2018-05-17T21:30:27.795Z,99.90
2018-05-17T21:31:30.329Z,99.90
2018-05-17T21:32:33.626Z,99.90
2018-05-17T21:33:36.935Z,99.90
2018-05-17T21:34:39.430Z,99.90
2018-05-17T21:35:41.956Z,99.90
2018-05-17T21:36:45.242Z,99.90
2018-05-17T21:37:48.589Z,99.90
2018-05-17T21:38:51.104Z,99.90
2018-05-17T21:39:54.367Z,99.90
2018-05-17T21:40:56.871Z,99.90
2018-05-17T21:42:00.149Z,99.90
2018-05-17T21:43:03.449Z,99.90
2018-05-17T21:44:05.961Z,99.90
2018-05-17T21:45:08.491Z,99.90
2018-05-17T21:46:11.757Z,99.90
2018-05-17T21:47:14.267Z,99.90
2018-05-17T21:48:16.786Z,99.90
2018-05-17T21:49:19.295Z,99.90
2018-05-17T21:50:21.794Z,99.90
2018-05-17T21:51:24.303Z,99.90
2018-05-17T21:52:26.822Z,99.90
2018-05-17T21:53:29.334Z,99.90
2018-05-17T21:54:31.845Z,99.90
2018-05-17T21:55:34.418Z,99.90
2018-05-17T21:56:36.844Z,99.90
2018-05-17T21:57:39.338Z,99.90
2018-05-17T21:58:42.619Z,99.90
2018-05-17T21:59:45.106Z,99.90
2018-05-17T22:00:48.373Z,99.90
2018-05-17T22:01:50.887Z,99.90
2018-05-17T22:02:54.418Z,99.90
2018-05-17T22:03:57.079Z,99.90
2018-05-17T22:04:59.597Z,99.90
2018-05-17T22:06:02.854Z,99.90
2018-05-17T22:07:05.350Z,99.90
2018-05-17T22:08:08.645Z,99.90
2018-05-17T22:09:11.931Z,99.90
2018-05-17T22:10:15.241Z,99.90
2018-05-17T22:11:18.709Z,99.90
2018-05-17T22:12:21.972Z,99.90
2018-05-17T22:13:24.522Z,99.90
2018-05-17T22:14:27.019Z,99.90
2018-05-17T22:15:29.590Z,99.90
2018-05-17T22:16:32.095Z,99.90
2018-05-17T22:17:35.344Z,99.90
2018-05-17T22:18:38.694Z,99.90
2018-05-17T22:19:41.371Z,99.90
2018-05-17T22:20:43.906Z,99.90
2018-05-17T22:21:47.165Z,99.90
2018-05-17T22:22:49.933Z,99.90
2018-05-17T22:23:52.459Z,99.90
2018-05-17T22:24:55.083Z,99.90
2018-05-17T22:25:57.596Z,99.90
2018-05-17T22:27:00.862Z,99.90
2018-05-17T22:28:03.375Z,99.90
2018-05-17T22:29:05.916Z,99.90
2018-05-17T22:30:09.120Z,99.90
2018-05-17T22:31:11.632Z,99.90
2018-05-17T22:32:14.129Z,99.90
2018-05-17T22:33:16.623Z,99.90
2018-05-17T22:34:19.899Z,99.90
2018-05-17T22:35:23.188Z,99.90
2018-05-17T22:36:26.449Z,99.90
2018-05-17T22:37:28.948Z,99.90
2018-05-17T22:38:32.211Z,99.90
2018-05-17T22:39:34.707Z,99.90
2018-05-17T22:40:38.080Z,99.90
2018-05-17T22:41:40.595Z,99.90
2018-05-17T22:42:43.102Z,99.90
2018-05-17T22:43:45.600Z,99.90
2018-05-17T22:44:48.861Z,99.90
2018-05-17T22:45:51.392Z,99.90
2018-05-17T22:46:54.274Z,99.90
2018-05-17T22:47:56.767Z,99.90
2018-05-17T22:48:59.272Z,99.90
2018-05-17T22:50:01.783Z,99.90
2018-05-17T22:51:04.307Z,99.90
2018-05-17T22:52:06.822Z,99.90
2018-05-17T22:53:09.331Z,99.90
2018-05-17T22:54:11.999Z,99.90
2018-05-17T22:55:14.522Z,99.90
2018-05-17T22:56:29.820Z,99.90
2018-05-17T22:57:44.228Z,99.90
2018-05-17T22:58:47.483Z,99.90
2018-05-17T22:59:50.161Z,99.90
2018-05-17T23:00:52.663Z,99.90
2018-05-17T23:01:55.173Z,99.90
2018-05-17T23:02:57.665Z,99.90
2018-05-17T23:04:00.174Z,99.90
2018-05-17T23:05:02.676Z,99.90
2018-05-17T23:06:05.175Z,99.90
2018-05-17T23:07:07.710Z,99.90
2018-05-17T23:08:10.238Z,99.90
2018-05-17T23:09:12.738Z,99.90
2018-05-17T23:10:16.035Z,99.90
2018-05-17T23:11:18.558Z,99.90
2018-05-17T23:12:21.128Z,99.90
2018-05-17T23:13:23.629Z,99.90
2018-05-17T23:14:26.909Z,99.90
2018-05-17T23:15:30.212Z,99.90
2018-05-17T23:16:33.476Z,99.90
2018-05-17T23:17:35.981Z,99.90
2018-05-17T23:18:38.487Z,99.90
2018-05-17T23:19:40.979Z,99.90
2018-05-17T23:20:43.505Z,99.90
2018-05-17T23:21:46.020Z,99.90
2018-05-17T23:22:48.523Z,99.90
2018-05-17T23:23:52.011Z,99.90
2018-05-17T23:24:55.291Z,99.90
2018-05-17T23:25:57.795Z,99.90
2018-05-17T23:27:00.314Z,99.90
2018-05-17T23:28:02.847Z,99.90
2018-05-17T23:29:05.357Z,99.90
2018-05-17T23:30:07.963Z,99.90
2018-05-17T23:31:11.251Z,99.90
2018-05-17T23:32:14.521Z,99.90
2018-05-17T23:33:17.815Z,99.90
2018-05-17T23:34:20.334Z,99.90
2018-05-17T23:35:22.836Z,99.90
2018-05-17T23:36:25.359Z,99.90
2018-05-17T23:37:27.909Z,99.90
2018-05-17T23:38:31.180Z,99.90
2018-05-17T23:39:33.674Z,99.90
2018-05-17T23:42:15.478Z,99.90
2018-05-17T23:43:17.988Z,99.90
2018-05-17T23:44:20.498Z,99.90
2018-05-17T23:45:23.022Z,99.90
2018-05-17T23:46:25.575Z,99.90
2018-05-17T23:47:28.069Z,99.90
2018-05-17T23:48:30.580Z,99.90
2018-05-17T23:49:33.067Z,99.90
2018-05-17T23:50:36.334Z,99.90
2018-05-17T23:51:38.827Z,99.90
2018-05-17T23:52:42.088Z,99.90
2018-05-17T23:53:44.632Z,99.90
2018-05-17T23:54:47.120Z,99.90
2018-05-17T23:55:49.622Z,99.90
2018-05-17T23:56:52.881Z,99.90
2018-05-17T23:57:55.375Z,99.90
2018-05-17T23:58:58.636Z,99.90
